sensor_id;sensor_type;location;lat;lon;timestamp;pressure;altitude;pressure_sealevel;temperature;humidity
35892;BME280;21993;42.672;23.296;2024-03-02T00:00:14;94134.19;;;9.20;74.25
35892;BME280;21993;42.672;23.296;2024-03-02T00:02:43;94155.56;;;9.25;74.05
35892;BME280;21993;42.672;23.296;2024-03-02T00:05:19;94141.34;;;9.28;74.00
35892;BME280;21993;42.672;23.296;2024-03-02T00:07:52;94153.31;;;9.30;73.75
35892;BME280;21993;42.672;23.296;2024-03-02T00:10:21;94158.31;;;9.34;73.24
35892;BME280;21993;42.672;23.296;2024-03-02T00:12:50;94149.97;;;9.48;72.72
35892;BME280;21993;42.672;23.296;2024-03-02T00:15:42;94141.28;;;9.47;72.39
35892;BME280;21993;42.672;23.296;2024-03-02T00:18:13;94146.53;;;9.47;72.48
35892;BME280;21993;42.672;23.296;2024-03-02T00:20:40;94149.94;;;9.57;72.34
35892;BME280;21993;42.672;23.296;2024-03-02T00:23:07;94157.00;;;9.47;72.76
35892;BME280;21993;42.672;23.296;2024-03-02T00:25:52;94146.38;;;9.49;72.80
35892;BME280;21993;42.672;23.296;2024-03-02T00:28:34;94149.59;;;9.43;72.67
35892;BME280;21993;42.672;23.296;2024-03-02T00:31:07;94151.50;;;9.41;73.20
35892;BME280;21993;42.672;23.296;2024-03-02T00:33:36;94148.13;;;9.58;72.65
35892;BME280;21993;42.672;23.296;2024-03-02T00:36:04;94145.63;;;9.66;72.54
35892;BME280;21993;42.672;23.296;2024-03-02T00:38:30;94138.94;;;9.81;72.12
35892;BME280;21993;42.672;23.296;2024-03-02T00:40:58;94141.50;;;9.91;72.19
35892;BME280;21993;42.672;23.296;2024-03-02T00:43:41;94145.88;;;10.00;72.04
35892;BME280;21993;42.672;23.296;2024-03-02T00:46:07;94137.06;;;10.01;72.10
35892;BME280;21993;42.672;23.296;2024-03-02T00:48:33;94138.50;;;9.86;72.24
35892;BME280;21993;42.672;23.296;2024-03-02T00:51:03;94136.06;;;9.84;72.73
35892;BME280;21993;42.672;23.296;2024-03-02T00:53:32;94136.25;;;10.01;72.05
35892;BME280;21993;42.672;23.296;2024-03-02T00:55:58;94134.03;;;9.96;71.77
35892;BME280;21993;42.672;23.296;2024-03-02T00:58:25;94140.34;;;10.03;71.97
35892;BME280;21993;42.672;23.296;2024-03-02T01:00:50;94139.81;;;10.00;71.58
35892;BME280;21993;42.672;23.296;2024-03-02T01:03:16;94137.16;;;10.09;71.71
35892;BME280;21993;42.672;23.296;2024-03-02T01:05:42;94134.53;;;10.09;71.28
35892;BME280;21993;42.672;23.296;2024-03-02T01:08:09;94140.38;;;10.21;71.61
35892;BME280;21993;42.672;23.296;2024-03-02T01:10:34;94146.06;;;10.16;71.81
35892;BME280;21993;42.672;23.296;2024-03-02T01:13:00;94143.56;;;10.25;71.59
35892;BME280;21993;42.672;23.296;2024-03-02T01:15:25;94134.06;;;10.24;71.72
35892;BME280;21993;42.672;23.296;2024-03-02T01:17:51;94133.34;;;10.22;71.72
35892;BME280;21993;42.672;23.296;2024-03-02T01:20:16;94129.34;;;10.27;72.24
35892;BME280;21993;42.672;23.296;2024-03-02T01:22:42;94113.75;;;10.26;70.56
35892;BME280;21993;42.672;23.296;2024-03-02T01:25:08;94113.88;;;10.24;71.35
35892;BME280;21993;42.672;23.296;2024-03-02T01:27:35;94110.38;;;10.33;71.17
35892;BME280;21993;42.672;23.296;2024-03-02T01:30:01;94109.19;;;10.46;71.10
35892;BME280;21993;42.672;23.296;2024-03-02T01:32:26;94109.50;;;10.42;71.13
35892;BME280;21993;42.672;23.296;2024-03-02T01:34:52;94111.44;;;10.40;71.43
35892;BME280;21993;42.672;23.296;2024-03-02T01:37:18;94114.06;;;10.40;71.65
35892;BME280;21993;42.672;23.296;2024-03-02T01:39:43;94118.41;;;10.50;71.27
35892;BME280;21993;42.672;23.296;2024-03-02T01:42:09;94106.88;;;10.42;71.77
35892;BME280;21993;42.672;23.296;2024-03-02T01:44:36;94119.84;;;10.44;72.13
35892;BME280;21993;42.672;23.296;2024-03-02T01:47:01;94104.94;;;10.45;72.17
35892;BME280;21993;42.672;23.296;2024-03-02T01:49:27;94106.56;;;10.46;72.46
35892;BME280;21993;42.672;23.296;2024-03-02T01:51:52;94099.06;;;10.51;72.49
35892;BME280;21993;42.672;23.296;2024-03-02T01:54:18;94104.84;;;10.54;72.43
35892;BME280;21993;42.672;23.296;2024-03-02T01:56:43;94099.59;;;10.54;71.47
35892;BME280;21993;42.672;23.296;2024-03-02T01:59:10;94101.69;;;10.51;71.80
35892;BME280;21993;42.672;23.296;2024-03-02T02:01:35;94107.63;;;10.53;71.94
35892;BME280;21993;42.672;23.296;2024-03-02T02:04:01;94113.78;;;10.61;71.07
35892;BME280;21993;42.672;23.296;2024-03-02T02:06:27;94105.34;;;10.58;71.02
35892;BME280;21993;42.672;23.296;2024-03-02T02:08:52;94106.50;;;10.55;71.75
35892;BME280;21993;42.672;23.296;2024-03-02T02:11:18;94105.00;;;10.53;71.44
35892;BME280;21993;42.672;23.296;2024-03-02T02:13:44;94105.97;;;10.52;71.44
35892;BME280;21993;42.672;23.296;2024-03-02T02:16:09;94110.53;;;10.50;71.64
35892;BME280;21993;42.672;23.296;2024-03-02T02:18:35;94105.00;;;10.53;71.62
35892;BME280;21993;42.672;23.296;2024-03-02T02:21:03;94100.25;;;10.56;71.21
35892;BME280;21993;42.672;23.296;2024-03-02T02:23:29;94106.41;;;10.47;71.21
35892;BME280;21993;42.672;23.296;2024-03-02T02:25:54;94101.84;;;10.49;71.48
35892;BME280;21993;42.672;23.296;2024-03-02T02:28:20;94103.63;;;10.49;71.21
35892;BME280;21993;42.672;23.296;2024-03-02T02:30:45;94110.41;;;10.51;72.08
35892;BME280;21993;42.672;23.296;2024-03-02T02:33:11;94104.38;;;10.59;71.31
35892;BME280;21993;42.672;23.296;2024-03-02T02:35:36;94096.38;;;10.60;71.93
35892;BME280;21993;42.672;23.296;2024-03-02T02:38:03;94092.78;;;10.61;71.80
35892;BME280;21993;42.672;23.296;2024-03-02T02:40:28;94097.19;;;10.61;72.00
35892;BME280;21993;42.672;23.296;2024-03-02T02:42:57;94110.16;;;10.62;72.02
35892;BME280;21993;42.672;23.296;2024-03-02T02:45:24;94108.06;;;10.66;71.66
35892;BME280;21993;42.672;23.296;2024-03-02T02:47:49;94106.41;;;10.65;71.42
35892;BME280;21993;42.672;23.296;2024-03-02T02:50:15;94102.28;;;10.62;71.57
35892;BME280;21993;42.672;23.296;2024-03-02T02:52:41;94106.50;;;10.55;71.43
35892;BME280;21993;42.672;23.296;2024-03-02T02:55:09;94110.25;;;10.53;71.19
35892;BME280;21993;42.672;23.296;2024-03-02T02:57:35;94114.59;;;10.62;71.00
35892;BME280;21993;42.672;23.296;2024-03-02T03:00:07;94108.81;;;10.58;71.15
35892;BME280;21993;42.672;23.296;2024-03-02T03:02:42;94106.56;;;10.63;71.80
35892;BME280;21993;42.672;23.296;2024-03-02T03:05:12;94105.34;;;10.58;72.23
35892;BME280;21993;42.672;23.296;2024-03-02T03:07:42;94109.69;;;10.67;71.55
35892;BME280;21993;42.672;23.296;2024-03-02T03:10:09;94109.63;;;10.59;71.92
35892;BME280;21993;42.672;23.296;2024-03-02T03:12:35;94109.28;;;10.54;72.69
35892;BME280;21993;42.672;23.296;2024-03-02T03:15:01;94110.44;;;10.59;72.55
35892;BME280;21993;42.672;23.296;2024-03-02T03:17:28;94111.81;;;10.63;72.75
35892;BME280;21993;42.672;23.296;2024-03-02T03:19:54;94103.28;;;10.61;73.11
35892;BME280;21993;42.672;23.296;2024-03-02T03:22:20;94107.81;;;10.59;73.55
35892;BME280;21993;42.672;23.296;2024-03-02T03:24:45;94109.63;;;10.59;73.53
35892;BME280;21993;42.672;23.296;2024-03-02T03:27:11;94110.75;;;10.56;73.15
35892;BME280;21993;42.672;23.296;2024-03-02T03:29:37;94110.91;;;10.55;73.70
35892;BME280;21993;42.672;23.296;2024-03-02T03:32:03;94103.34;;;10.52;73.81
35892;BME280;21993;42.672;23.296;2024-03-02T03:34:32;94106.81;;;10.52;73.67
35892;BME280;21993;42.672;23.296;2024-03-02T03:36:58;94113.03;;;10.51;74.18
35892;BME280;21993;42.672;23.296;2024-03-02T03:39:23;94111.22;;;10.52;74.00
35892;BME280;21993;42.672;23.296;2024-03-02T03:41:48;94104.47;;;10.49;73.75
35892;BME280;21993;42.672;23.296;2024-03-02T03:44:14;94109.72;;;10.49;74.31
35892;BME280;21993;42.672;23.296;2024-03-02T03:46:39;94111.50;;;10.49;73.96
35892;BME280;21993;42.672;23.296;2024-03-02T03:49:05;94114.97;;;10.49;73.75
35892;BME280;21993;42.672;23.296;2024-03-02T03:51:30;94110.91;;;10.55;73.84
35892;BME280;21993;42.672;23.296;2024-03-02T03:53:56;94112.78;;;10.45;73.36
35892;BME280;21993;42.672;23.296;2024-03-02T03:56:21;94109.50;;;10.42;74.01
35892;BME280;21993;42.672;23.296;2024-03-02T03:58:47;94115.19;;;10.38;74.18
35892;BME280;21993;42.672;23.296;2024-03-02T04:01:12;94109.94;;;10.38;74.26
35892;BME280;21993;42.672;23.296;2024-03-02T04:03:38;94115.94;;;10.48;73.77
35892;BME280;21993;42.672;23.296;2024-03-02T04:06:04;94116.69;;;10.40;74.19
35892;BME280;21993;42.672;23.296;2024-03-02T04:08:29;94109.56;;;10.33;74.23
35892;BME280;21993;42.672;23.296;2024-03-02T04:10:55;94110.38;;;10.33;74.16
35892;BME280;21993;42.672;23.296;2024-03-02T04:13:21;94117.00;;;10.37;74.44
35892;BME280;21993;42.672;23.296;2024-03-02T04:15:46;94113.78;;;10.43;74.24
35892;BME280;21993;42.672;23.296;2024-03-02T04:18:12;94102.66;;;10.50;73.79
35892;BME280;21993;42.672;23.296;2024-03-02T04:20:37;94102.16;;;10.46;73.93
35892;BME280;21993;42.672;23.296;2024-03-02T04:23:03;94104.84;;;10.36;74.51
35892;BME280;21993;42.672;23.296;2024-03-02T04:25:33;94108.13;;;10.38;74.04
35892;BME280;21993;42.672;23.296;2024-03-02T04:27:58;94110.91;;;10.37;74.07
35892;BME280;21993;42.672;23.296;2024-03-02T04:30:23;94116.22;;;10.27;74.23
35892;BME280;21993;42.672;23.296;2024-03-02T04:32:50;94118.84;;;10.27;74.86
35892;BME280;21993;42.672;23.296;2024-03-02T04:35:16;94117.72;;;10.30;74.87
35892;BME280;21993;42.672;23.296;2024-03-02T04:37:41;94118.41;;;10.32;74.47
35892;BME280;21993;42.672;23.296;2024-03-02T04:40:08;94113.31;;;10.30;75.01
35892;BME280;21993;42.672;23.296;2024-03-02T04:42:34;94117.06;;;10.28;74.93
35892;BME280;21993;42.672;23.296;2024-03-02T04:45:00;94112.31;;;10.31;75.25
35892;BME280;21993;42.672;23.296;2024-03-02T04:47:26;94118.03;;;10.27;75.50
35892;BME280;21993;42.672;23.296;2024-03-02T04:49:51;94128.06;;;10.31;75.92
35892;BME280;21993;42.672;23.296;2024-03-02T04:52:17;94116.75;;;10.31;75.67
35892;BME280;21993;42.672;23.296;2024-03-02T04:54:43;94119.38;;;10.31;75.45
35892;BME280;21993;42.672;23.296;2024-03-02T04:57:27;94117.97;;;10.36;75.52
35892;BME280;21993;42.672;23.296;2024-03-02T04:59:52;94125.00;;;10.36;76.46
35892;BME280;21993;42.672;23.296;2024-03-02T05:02:18;94126.91;;;10.43;76.02
35892;BME280;21993;42.672;23.296;2024-03-02T05:04:43;94133.41;;;10.39;76.34
35892;BME280;21993;42.672;23.296;2024-03-02T05:07:09;94125.16;;;10.34;76.68
35892;BME280;21993;42.672;23.296;2024-03-02T05:09:34;94130.41;;;10.34;76.32
35892;BME280;21993;42.672;23.296;2024-03-02T05:12:00;94137.22;;;10.27;76.70
35892;BME280;21993;42.672;23.296;2024-03-02T05:14:43;94132.94;;;10.26;77.37
35892;BME280;21993;42.672;23.296;2024-03-02T05:17:09;94135.03;;;10.23;77.28
35892;BME280;21993;42.672;23.296;2024-03-02T05:19:34;94140.81;;;10.16;77.74
35892;BME280;21993;42.672;23.296;2024-03-02T05:22:00;94143.13;;;10.29;77.68
35892;BME280;21993;42.672;23.296;2024-03-02T05:24:25;94141.91;;;10.24;77.90
35892;BME280;21993;42.672;23.296;2024-03-02T05:26:54;94145.94;;;10.18;77.79
35892;BME280;21993;42.672;23.296;2024-03-02T05:29:19;94144.25;;;10.17;78.19
35892;BME280;21993;42.672;23.296;2024-03-02T05:31:45;94152.44;;;10.14;78.07
35892;BME280;21993;42.672;23.296;2024-03-02T05:34:11;94153.81;;;10.18;77.97
35892;BME280;21993;42.672;23.296;2024-03-02T05:36:36;94159.88;;;10.19;78.06
35892;BME280;21993;42.672;23.296;2024-03-02T05:39:04;94155.06;;;10.14;78.56
35892;BME280;21993;42.672;23.296;2024-03-02T05:41:32;94151.84;;;10.20;78.04
35892;BME280;21993;42.672;23.296;2024-03-02T05:43:57;94159.72;;;10.20;78.39
35892;BME280;21993;42.672;23.296;2024-03-02T05:46:23;94162.94;;;10.14;78.47
35892;BME280;21993;42.672;23.296;2024-03-02T05:48:49;94157.00;;;10.12;78.75
35892;BME280;21993;42.672;23.296;2024-03-02T05:51:14;94168.84;;;10.16;78.95
35892;BME280;21993;42.672;23.296;2024-03-02T05:53:40;94167.16;;;10.25;78.40
35892;BME280;21993;42.672;23.296;2024-03-02T05:56:06;94172.28;;;10.26;78.43
35892;BME280;21993;42.672;23.296;2024-03-02T05:58:31;94171.47;;;10.26;78.32
35892;BME280;21993;42.672;23.296;2024-03-02T06:01:18;94165.94;;;10.19;78.63
35892;BME280;21993;42.672;23.296;2024-03-02T06:03:44;94166.38;;;10.14;78.99
35892;BME280;21993;42.672;23.296;2024-03-02T06:06:09;94167.88;;;10.17;79.17
35892;BME280;21993;42.672;23.296;2024-03-02T06:08:35;94164.88;;;10.12;79.17
35892;BME280;21993;42.672;23.296;2024-03-02T06:11:01;94165.56;;;10.14;79.43
35892;BME280;21993;42.672;23.296;2024-03-02T06:13:26;94168.31;;;10.12;79.86
35892;BME280;21993;42.672;23.296;2024-03-02T06:15:52;94173.41;;;10.14;80.07
35892;BME280;21993;42.672;23.296;2024-03-02T06:18:18;94172.28;;;10.16;80.00
35892;BME280;21993;42.672;23.296;2024-03-02T06:20:43;94169.66;;;10.16;79.60
35892;BME280;21993;42.672;23.296;2024-03-02T06:23:09;94166.09;;;10.18;79.54
35892;BME280;21993;42.672;23.296;2024-03-02T06:25:34;94164.53;;;10.25;79.71
35892;BME280;21993;42.672;23.296;2024-03-02T06:28:00;94171.16;;;10.29;79.58
35892;BME280;21993;42.672;23.296;2024-03-02T06:30:25;94177.47;;;10.36;78.98
35892;BME280;21993;42.672;23.296;2024-03-02T06:32:51;94176.16;;;10.22;79.58
35892;BME280;21993;42.672;23.296;2024-03-02T06:35:16;94178.78;;;10.22;79.32
35892;BME280;21993;42.672;23.296;2024-03-02T06:37:43;94185.53;;;10.25;79.38
35892;BME280;21993;42.672;23.296;2024-03-02T06:40:09;94181.09;;;10.25;79.39
35892;BME280;21993;42.672;23.296;2024-03-02T06:42:35;94176.84;;;10.24;79.99
35892;BME280;21993;42.672;23.296;2024-03-02T06:45:02;94184.28;;;10.29;79.23
35892;BME280;21993;42.672;23.296;2024-03-02T06:47:28;94185.41;;;10.26;79.60
35892;BME280;21993;42.672;23.296;2024-03-02T06:49:55;94192.81;;;10.31;79.33
35892;BME280;21993;42.672;23.296;2024-03-02T06:52:22;94191.31;;;10.28;79.85
35892;BME280;21993;42.672;23.296;2024-03-02T06:54:48;94186.44;;;10.33;79.72
35892;BME280;21993;42.672;23.296;2024-03-02T06:57:13;94192.97;;;10.29;79.50
35892;BME280;21993;42.672;23.296;2024-03-02T06:59:39;94188.56;;;10.30;79.84
35892;BME280;21993;42.672;23.296;2024-03-02T07:02:04;94192.41;;;10.35;79.97
35892;BME280;21993;42.672;23.296;2024-03-02T07:04:30;94196.81;;;10.35;79.09
35892;BME280;21993;42.672;23.296;2024-03-02T07:06:58;94197.50;;;10.37;78.43
35892;BME280;21993;42.672;23.296;2024-03-02T07:09:23;94204.22;;;10.39;78.71
35892;BME280;21993;42.672;23.296;2024-03-02T07:11:49;94199.66;;;10.41;78.58
35892;BME280;21993;42.672;23.296;2024-03-02T07:14:14;94200.94;;;10.37;78.47
35892;BME280;21993;42.672;23.296;2024-03-02T07:16:40;94200.06;;;10.47;78.73
35892;BME280;21993;42.672;23.296;2024-03-02T07:19:08;94203.97;;;10.42;78.44
35892;BME280;21993;42.672;23.296;2024-03-02T07:21:34;94200.44;;;10.52;78.28
35892;BME280;21993;42.672;23.296;2024-03-02T07:24:00;94200.91;;;10.65;77.68
35892;BME280;21993;42.672;23.296;2024-03-02T07:26:28;94198.72;;;10.60;77.89
35892;BME280;21993;42.672;23.296;2024-03-02T07:28:55;94207.63;;;10.50;77.85
35892;BME280;21993;42.672;23.296;2024-03-02T07:31:20;94208.91;;;10.46;77.53
35892;BME280;21993;42.672;23.296;2024-03-02T07:33:46;94206.28;;;10.46;78.36
35892;BME280;21993;42.672;23.296;2024-03-02T07:36:12;94203.34;;;10.49;78.58
35892;BME280;21993;42.672;23.296;2024-03-02T07:38:38;94207.41;;;10.43;78.71
35892;BME280;21993;42.672;23.296;2024-03-02T07:41:03;94218.84;;;10.42;79.41
35892;BME280;21993;42.672;23.296;2024-03-02T07:43:30;94212.94;;;10.40;79.45
35892;BME280;21993;42.672;23.296;2024-03-02T07:45:58;94215.41;;;10.41;79.57
35892;BME280;21993;42.672;23.296;2024-03-02T07:48:24;94215.41;;;10.41;79.52
35892;BME280;21993;42.672;23.296;2024-03-02T07:50:50;94218.03;;;10.41;79.01
35892;BME280;21993;42.672;23.296;2024-03-02T07:53:16;94216.72;;;10.55;78.87
35892;BME280;21993;42.672;23.296;2024-03-02T07:55:41;94224.09;;;10.42;78.86
35892;BME280;21993;42.672;23.296;2024-03-02T07:58:07;94223.00;;;10.45;78.95
35892;BME280;21993;42.672;23.296;2024-03-02T08:00:33;94220.06;;;10.48;78.94
35892;BME280;21993;42.672;23.296;2024-03-02T08:02:59;94229.00;;;10.55;78.55
35892;BME280;21993;42.672;23.296;2024-03-02T08:05:24;94221.22;;;10.63;78.16
35892;BME280;21993;42.672;23.296;2024-03-02T08:07:50;94225.81;;;10.61;77.96
35892;BME280;21993;42.672;23.296;2024-03-02T08:10:18;94231.97;;;10.42;78.31
35892;BME280;21993;42.672;23.296;2024-03-02T08:12:44;94236.63;;;10.48;78.20
35892;BME280;21993;42.672;23.296;2024-03-02T08:15:09;94235.59;;;10.59;78.00
35892;BME280;21993;42.672;23.296;2024-03-02T08:17:35;94230.88;;;10.45;78.77
35892;BME280;21993;42.672;23.296;2024-03-02T08:20:01;94227.56;;;10.42;78.64
35892;BME280;21993;42.672;23.296;2024-03-02T08:22:27;94226.72;;;10.42;79.02
35892;BME280;21993;42.672;23.296;2024-03-02T08:24:53;94226.97;;;10.49;78.46
35892;BME280;21993;42.672;23.296;2024-03-02T08:27:19;94226.72;;;10.42;78.53
35892;BME280;21993;42.672;23.296;2024-03-02T08:29:45;94228.91;;;10.47;78.15
35892;BME280;21993;42.672;23.296;2024-03-02T08:32:10;94229.94;;;10.36;77.68
35892;BME280;21993;42.672;23.296;2024-03-02T08:34:36;94224.69;;;10.36;77.51
35892;BME280;21993;42.672;23.296;2024-03-02T08:37:02;94226.03;;;10.40;78.02
35892;BME280;21993;42.672;23.296;2024-03-02T08:39:28;94226.94;;;10.31;78.67
35892;BME280;21993;42.672;23.296;2024-03-02T08:41:53;94213.31;;;10.45;78.30
35892;BME280;21993;42.672;23.296;2024-03-02T08:44:19;94231.28;;;10.40;79.00
35892;BME280;21993;42.672;23.296;2024-03-02T08:46:45;94225.00;;;10.51;80.10
35892;BME280;21993;42.672;23.296;2024-03-02T08:49:12;94222.56;;;10.67;79.32
35892;BME280;21993;42.672;23.296;2024-03-02T08:51:37;94225.50;;;10.64;78.10
35892;BME280;21993;42.672;23.296;2024-03-02T08:54:03;94227.38;;;10.71;77.76
35892;BME280;21993;42.672;23.296;2024-03-02T08:56:30;94224.28;;;10.58;78.17
35892;BME280;21993;42.672;23.296;2024-03-02T08:58:56;94213.03;;;10.66;77.35
35892;BME280;21993;42.672;23.296;2024-03-02T09:01:21;94223.28;;;10.69;78.18
35892;BME280;21993;42.672;23.296;2024-03-02T09:03:47;94221.00;;;10.74;77.97
35892;BME280;21993;42.672;23.296;2024-03-02T09:06:14;94225.16;;;10.77;77.90
35892;BME280;21993;42.672;23.296;2024-03-02T09:08:42;94227.41;;;10.89;78.32
35892;BME280;21993;42.672;23.296;2024-03-02T09:11:09;94223.88;;;10.81;76.90
35892;BME280;21993;42.672;23.296;2024-03-02T09:13:35;94225.09;;;10.86;76.15
35892;BME280;21993;42.672;23.296;2024-03-02T09:16:01;94236.56;;;10.85;75.79
35892;BME280;21993;42.672;23.296;2024-03-02T09:18:28;94231.50;;;10.92;75.65
35892;BME280;21993;42.672;23.296;2024-03-02T09:20:54;94240.38;;;10.91;75.65
35892;BME280;21993;42.672;23.296;2024-03-02T09:23:20;94244.03;;;10.80;76.28
35892;BME280;21993;42.672;23.296;2024-03-02T09:25:46;94238.72;;;10.90;76.03
35892;BME280;21993;42.672;23.296;2024-03-02T09:28:12;94237.47;;;10.94;76.14
35892;BME280;21993;42.672;23.296;2024-03-02T09:30:37;94236.03;;;10.99;75.69
35892;BME280;21993;42.672;23.296;2024-03-02T09:33:03;94243.31;;;11.06;75.47
35892;BME280;21993;42.672;23.296;2024-03-02T09:35:29;94249.78;;;11.11;75.41
35892;BME280;21993;42.672;23.296;2024-03-02T09:37:55;94243.38;;;11.14;75.54
35892;BME280;21993;42.672;23.296;2024-03-02T09:40:22;94246.31;;;11.11;74.89
35892;BME280;21993;42.672;23.296;2024-03-02T09:42:48;94250.44;;;11.13;73.97
35892;BME280;21993;42.672;23.296;2024-03-02T09:45:23;94253.91;;;11.14;73.70
35892;BME280;21993;42.672;23.296;2024-03-02T09:47:49;94249.78;;;11.11;74.14
35892;BME280;21993;42.672;23.296;2024-03-02T09:50:16;94248.78;;;11.12;74.88
35892;BME280;21993;42.672;23.296;2024-03-02T09:52:43;94244.53;;;11.11;75.04
35892;BME280;21993;42.672;23.296;2024-03-02T09:55:09;94244.28;;;11.22;74.16
35892;BME280;21993;42.672;23.296;2024-03-02T09:57:34;94250.03;;;11.26;74.74
35892;BME280;21993;42.672;23.296;2024-03-02T10:00:00;94246.75;;;11.24;76.19
35892;BME280;21993;42.672;23.296;2024-03-02T10:02:25;94248.19;;;11.36;75.93
35892;BME280;21993;42.672;23.296;2024-03-02T10:04:51;94247.88;;;11.39;75.67
35892;BME280;21993;42.672;23.296;2024-03-02T10:07:18;94253.44;;;11.36;76.06
35892;BME280;21993;42.672;23.296;2024-03-02T10:09:45;94243.91;;;11.35;77.03
35892;BME280;21993;42.672;23.296;2024-03-02T10:12:13;94250.28;;;11.33;76.48
35892;BME280;21993;42.672;23.296;2024-03-02T10:14:39;94242.63;;;11.39;76.52
35892;BME280;21993;42.672;23.296;2024-03-02T10:17:14;94248.75;;;11.48;76.33
35892;BME280;21993;42.672;23.296;2024-03-02T10:19:40;94242.47;;;11.41;76.36
35892;BME280;21993;42.672;23.296;2024-03-02T10:22:08;94243.91;;;11.35;76.99
35892;BME280;21993;42.672;23.296;2024-03-02T10:24:43;94242.63;;;11.39;76.27
35892;BME280;21993;42.672;23.296;2024-03-02T10:27:16;94246.66;;;11.34;76.95
35892;BME280;21993;42.672;23.296;2024-03-02T10:29:46;94245.25;;;11.39;77.15
35892;BME280;21993;42.672;23.296;2024-03-02T10:32:13;94244.88;;;11.34;77.63
35892;BME280;21993;42.672;23.296;2024-03-02T10:34:43;94247.38;;;11.36;77.13
35892;BME280;21993;42.672;23.296;2024-03-02T10:37:10;94246.66;;;11.34;76.91
35892;BME280;21993;42.672;23.296;2024-03-02T10:39:36;94245.47;;;11.46;76.82
35892;BME280;21993;42.672;23.296;2024-03-02T10:42:03;94240.06;;;11.47;75.53
35892;BME280;21993;42.672;23.296;2024-03-02T10:44:31;94235.31;;;11.51;75.71
35892;BME280;21993;42.672;23.296;2024-03-02T10:47:00;94245.75;;;11.43;76.75
35892;BME280;21993;42.672;23.296;2024-03-02T10:49:27;94238.84;;;11.42;77.00
35892;BME280;21993;42.672;23.296;2024-03-02T10:51:54;94233.16;;;11.46;77.33
35892;BME280;21993;42.672;23.296;2024-03-02T10:54:19;94231.50;;;11.45;76.54
35892;BME280;21993;42.672;23.296;2024-03-02T10:56:52;94228.47;;;11.58;76.68
35892;BME280;21993;42.672;23.296;2024-03-02T10:59:28;94234.47;;;11.50;77.17
35892;BME280;21993;42.672;23.296;2024-03-02T11:01:59;94231.19;;;11.48;76.88
35892;BME280;21993;42.672;23.296;2024-03-02T11:04:26;94226.91;;;11.47;77.89
35892;BME280;21993;42.672;23.296;2024-03-02T11:07:04;94232.38;;;11.54;77.51
35892;BME280;21993;42.672;23.296;2024-03-02T11:09:33;94232.22;;;11.55;76.71
35892;BME280;21993;42.672;23.296;2024-03-02T11:12:31;94231.56;;;11.53;75.86
35892;BME280;21993;42.672;23.296;2024-03-02T11:15:04;94216.47;;;11.55;75.33
35892;BME280;21993;42.672;23.296;2024-03-02T11:17:35;94222.78;;;11.45;75.82
35892;BME280;21993;42.672;23.296;2024-03-02T11:20:03;94221.34;;;11.50;75.78
35892;BME280;21993;42.672;23.296;2024-03-02T11:22:29;94222.47;;;11.48;76.17
35892;BME280;21993;42.672;23.296;2024-03-02T11:24:56;94220.44;;;11.42;76.91
35892;BME280;21993;42.672;23.296;2024-03-02T11:33:00;94218.81;;;11.41;77.38
35892;BME280;21993;42.672;23.296;2024-03-02T11:35:26;94221.28;;;11.42;76.90
35892;BME280;21993;42.672;23.296;2024-03-02T11:37:54;94215.00;;;11.35;77.42
35892;BME280;21993;42.672;23.296;2024-03-02T11:40:22;94217.38;;;11.46;76.70
35892;BME280;21993;42.672;23.296;2024-03-02T11:42:48;94214.28;;;11.51;77.32
35892;BME280;21993;42.672;23.296;2024-03-02T11:45:22;94215.75;;;11.45;77.29
35892;BME280;21993;42.672;23.296;2024-03-02T11:47:54;94218.44;;;11.53;77.43
35892;BME280;21993;42.672;23.296;2024-03-02T11:50:30;94216.41;;;11.47;77.11
35892;BME280;21993;42.672;23.296;2024-03-02T11:53:01;94211.97;;;11.48;77.34
35892;BME280;21993;42.672;23.296;2024-03-02T11:55:26;94217.84;;;11.68;75.92
35892;BME280;21993;42.672;23.296;2024-03-02T11:57:52;94213.78;;;11.73;74.77
35892;BME280;21993;42.672;23.296;2024-03-02T12:00:19;94210.06;;;11.58;76.49
35892;BME280;21993;42.672;23.296;2024-03-02T12:05:27;94207.66;;;11.65;76.11
35892;BME280;21993;42.672;23.296;2024-03-02T12:08:00;94219.88;;;11.74;75.76
35892;BME280;21993;42.672;23.296;2024-03-02T12:10:26;94211.09;;;11.65;75.23
35892;BME280;21993;42.672;23.296;2024-03-02T12:13:11;94214.38;;;11.67;75.78
35892;BME280;21993;42.672;23.296;2024-03-02T12:15:38;94212.59;;;11.68;76.44
35892;BME280;21993;42.672;23.296;2024-03-02T12:18:05;94217.50;;;11.63;76.86
35892;BME280;21993;42.672;23.296;2024-03-02T12:20:32;94223.25;;;11.66;76.24
35892;BME280;21993;42.672;23.296;2024-03-02T12:22:59;94213.78;;;11.73;76.13
35892;BME280;21993;42.672;23.296;2024-03-02T12:25:25;94221.66;;;11.73;75.02
35892;BME280;21993;42.672;23.296;2024-03-02T12:27:53;94216.34;;;11.65;75.26
35892;BME280;21993;42.672;23.296;2024-03-02T12:30:20;94214.03;;;11.62;75.22
35892;BME280;21993;42.672;23.296;2024-03-02T12:32:46;94210.06;;;11.58;75.44
35892;BME280;21993;42.672;23.296;2024-03-02T12:35:13;94212.94;;;11.47;76.61
35892;BME280;21993;42.672;23.296;2024-03-02T12:37:44;94207.16;;;11.61;75.63
35892;BME280;21993;42.672;23.296;2024-03-02T12:40:14;94210.69;;;11.52;76.24
35892;BME280;21993;42.672;23.296;2024-03-02T12:42:41;94213.06;;;11.63;75.83
35892;BME280;21993;42.672;23.296;2024-03-02T12:45:09;94213.50;;;11.59;76.13
35892;BME280;21993;42.672;23.296;2024-03-02T12:47:35;94217.72;;;11.51;75.55
35892;BME280;21993;42.672;23.296;2024-03-02T12:50:02;94213.00;;;11.55;75.50
35892;BME280;21993;42.672;23.296;2024-03-02T12:52:28;94217.94;;;11.58;75.67
35892;BME280;21993;42.672;23.296;2024-03-02T12:54:54;94222.91;;;11.61;75.45
35892;BME280;21993;42.672;23.296;2024-03-02T12:57:26;94216.31;;;11.57;75.29